CheckWX is a tool to help pilots better visualize weather data.  It is not intended as a substitute for an official pre-flight weather briefing.

07:09:12 UTC

WSSS TAF
Singapore Changi International Airport
Singapore, Singapore
TAF WSSS 160500Z 1606/1712 17007KT 9999 FEW015 SCT020 TEMPO 1705/1709 3000 TSRA FEW012CB BKN015

Jun-16@
06:00 UTC

Jun-16 @ 06:00 UTC

Jun-17@
12:00 UTC

Jun-17 @ 12:00 UTC

TAF WSSS 160500Z 1606/1712 17007KT 9999 FEW015 SCT020
Wind
  • 170° at 7 KTS
Cloud Levels
  • Few at 1,500' AGL
  • Scattered at 2,000' AGL

Jun-17@
05:00 UTC

Jun-17 @ 05:00 UTC

Jun-17@
09:00 UTC

Jun-17 @ 09:00 UTC

TEMPO 1705/1709 3000 TSRA FEW012CB BKN015

Temporary

Temporary Changes expected for less than half the time period

Conditions
Thunderstorm, Rain
Cloud Levels
  • Few at 1,200' AGL
  • Broken at 1,500' AGL